This is the latest recevied weather packets stored in our database for station/object EA1IXY-2. If no packets are shown the sender has not sent any weather packets the latest 10 day(s).
| Time | Temp. | Humidity | Pressure | Rain* | Wind** | Luminosity | Snow |
|---|---|---|---|---|---|---|---|
| 1777957241 | 37.78° C | 17% | 928.6 hPa | - | - | - | - |
| 1777956341 | 37.78° C | 17% | 928.6 hPa | - | - | - | - |
| 1777955441 | 36.67° C | 18% | 927.4 hPa | - | - | - | - |
| 1777953628 | 37.78° C | 17% | 928.9 hPa | - | - | - | - |
| 1777951828 | 37.78° C | 18% | 928.9 hPa | - | - | - | - |
| 1777950028 | 37.78° C | 17% | 929 hPa | - | - | - | - |
| 1777948228 | 37.78° C | 17% | 929 hPa | - | - | - | - |
| 1777946428 | 37.78° C | 17% | 929.1 hPa | - | - | - | - |
| 1777944627 | 36.67° C | 17% | 927.7 hPa | - | - | - | - |
| 1777932903 | 38.33° C | 18% | 929.8 hPa | - | - | - | - |
| 1777932003 | 37.78° C | 18% | 929.8 hPa | - | - | - | - |
| 1777931102 | 37.78° C | 18% | 929.9 hPa | - | - | - | - |
| 1777930202 | 37.78° C | 18% | 930 hPa | - | - | - | - |
| 1777929302 | 38.33° C | 18% | 929.9 hPa | - | - | - | - |
| 1777928402 | 37.78° C | 18% | 929.8 hPa | - | - | - | - |
| 1777927502 | 37.78° C | 17% | 929.7 hPa | - | - | - | - |
| 1777926602 | 37.78° C | 16% | 929.6 hPa | - | - | - | - |
| 1777925702 | 37.78° C | 17% | 929.5 hPa | - | - | - | - |
| 1777924802 | 37.78° C | 16% | 929.5 hPa | - | - | - | - |
| 1777923902 | 37.22° C | 16% | 929.3 hPa | - | - | - | - |
| 1777923002 | 36.67° C | 17% | 928 hPa | - | - | - | - |
| 1777922090 | 37.78° C | 17% | 929.2 hPa | - | - | - | - |
| 1777921190 | 37.78° C | 17% | 929.1 hPa | - | - | - | - |
| 1777920290 | 37.78° C | 16% | 929.1 hPa | - | - | - | - |
| 1777919389 | 37.78° C | 16% | 929 hPa | - | - | - | - |
* Rain since midnight (hover to see other rain measurements)
** Current wind speed in m/s (hover to see current wind gust speed)